createdAt,value
2016-11-16T00:00:36.903Z,1018.21
2016-11-16T00:01:17.550Z,1018.18
2016-11-16T00:01:58.205Z,1018.13
2016-11-16T00:02:38.904Z,1018.15
2016-11-16T00:03:19.503Z,1018.11
2016-11-16T00:04:00.366Z,1018.15
2016-11-16T00:04:40.991Z,1018.14
2016-11-16T00:05:21.560Z,1018.14
2016-11-16T00:06:02.512Z,1018.1
2016-11-16T00:06:43.234Z,1018.1
2016-11-16T00:07:23.976Z,1018.09
2016-11-16T00:08:04.755Z,1018.07
2016-11-16T00:08:45.478Z,1018.07
2016-11-16T00:09:26.184Z,1018.04
2016-11-16T00:10:06.896Z,1018.04
2016-11-16T00:10:47.516Z,1017.97
2016-11-16T00:11:28.269Z,1018.04
2016-11-16T00:12:08.949Z,1018.03
2016-11-16T00:12:49.595Z,1017.99
2016-11-16T00:13:30.212Z,1017.97
2016-11-16T00:14:10.906Z,1017.99
2016-11-16T00:14:51.566Z,1017.95
2016-11-16T00:15:32.115Z,1017.97
2016-11-16T00:16:12.769Z,1017.96
2016-11-16T00:16:53.724Z,1017.95
2016-11-16T00:17:34.386Z,1017.92
2016-11-16T00:18:15.077Z,1017.96
2016-11-16T00:18:55.860Z,1017.92
2016-11-16T00:19:36.591Z,1017.96
2016-11-16T00:20:17.254Z,1017.91
2016-11-16T00:20:58.057Z,1017.91
2016-11-16T00:21:38.744Z,1017.91
2016-11-16T00:22:19.449Z,1017.89
2016-11-16T00:23:00.259Z,1017.9
2016-11-16T00:23:40.991Z,1017.89
2016-11-16T00:24:21.627Z,1017.89
2016-11-16T00:25:02.245Z,1017.92
2016-11-16T00:25:42.877Z,1017.91
2016-11-16T00:26:23.549Z,1017.89
2016-11-16T00:27:04.260Z,1017.86
2016-11-16T00:27:44.865Z,1017.88
2016-11-16T00:28:25.543Z,1017.84
2016-11-16T00:29:06.231Z,1017.83
2016-11-16T00:29:46.879Z,1017.81
2016-11-16T00:30:27.461Z,1017.85
2016-11-16T00:31:08.088Z,1017.8
2016-11-16T00:31:48.739Z,1017.81
2016-11-16T00:32:29.398Z,1017.77
2016-11-16T00:33:10.057Z,1017.75
2016-11-16T00:33:50.797Z,1017.77
2016-11-16T00:34:31.549Z,1017.75
2016-11-16T00:35:12.261Z,1017.72
2016-11-16T00:35:53.008Z,1017.75
2016-11-16T00:36:33.816Z,1017.76
2016-11-16T00:37:14.735Z,1017.73
2016-11-16T00:37:55.375Z,1017.71
2016-11-16T00:38:35.953Z,1017.77
2016-11-16T00:39:16.587Z,1017.73
2016-11-16T00:39:57.253Z,1017.72
2016-11-16T00:40:37.946Z,1017.74
2016-11-16T00:41:18.605Z,1017.74
2016-11-16T00:41:59.363Z,1017.73
2016-11-16T00:42:40.062Z,1017.72
2016-11-16T00:43:20.762Z,1017.73
2016-11-16T00:44:01.461Z,1017.75
2016-11-16T00:44:42.127Z,1017.73
2016-11-16T00:45:22.822Z,1017.73
2016-11-16T00:46:03.477Z,1017.7
2016-11-16T00:46:44.362Z,1017.73
2016-11-16T00:47:25.119Z,1017.75
2016-11-16T00:48:05.707Z,1017.73
2016-11-16T00:48:46.412Z,1017.72
2016-11-16T00:49:27.065Z,1017.7
2016-11-16T00:50:07.734Z,1017.75
2016-11-16T00:50:48.364Z,1017.73
2016-11-16T00:51:29.014Z,1017.7
2016-11-16T00:52:09.727Z,1017.72
2016-11-16T00:52:50.352Z,1017.71
2016-11-16T00:53:31.014Z,1017.69
2016-11-16T00:54:11.549Z,1017.73
2016-11-16T00:54:52.248Z,1017.68
2016-11-16T00:55:32.977Z,1017.68
2016-11-16T00:56:13.650Z,1017.66
2016-11-16T00:56:54.298Z,1017.65
2016-11-16T00:57:34.996Z,1017.64
2016-11-16T00:58:15.649Z,1017.61
2016-11-16T00:58:56.464Z,1017.62
2016-11-16T00:59:37.176Z,1017.58
2016-11-16T01:00:17.772Z,1017.61
2016-11-16T01:00:58.444Z,1017.55
2016-11-16T01:01:39.172Z,1017.51
2016-11-16T01:02:19.727Z,1017.56
2016-11-16T01:03:00.397Z,1017.51
2016-11-16T01:03:41.164Z,1017.5
2016-11-16T01:04:21.923Z,1017.49
2016-11-16T01:05:02.613Z,1017.52
2016-11-16T01:05:43.321Z,1017.5
2016-11-16T01:06:23.971Z,1017.44
2016-11-16T01:07:04.780Z,1017.48
2016-11-16T01:07:45.458Z,1017.41
2016-11-16T01:08:26.080Z,1017.4
2016-11-16T01:09:06.779Z,1017.43
2016-11-16T01:09:47.486Z,1017.45
2016-11-16T01:10:28.116Z,1017.42
2016-11-16T01:11:08.759Z,1017.39
2016-11-16T01:11:49.399Z,1017.4
2016-11-16T01:12:30.126Z,1017.39
2016-11-16T01:13:10.736Z,1017.4
2016-11-16T01:13:51.526Z,1017.39
2016-11-16T01:14:32.299Z,1017.39
2016-11-16T01:15:12.985Z,1017.34
2016-11-16T01:15:53.796Z,1017.32
2016-11-16T01:16:34.500Z,1017.38
2016-11-16T01:17:15.257Z,1017.39
2016-11-16T01:17:55.931Z,1017.37
2016-11-16T01:18:36.667Z,1017.36
2016-11-16T01:19:17.297Z,1017.38
2016-11-16T01:19:57.897Z,1017.35
2016-11-16T01:20:38.562Z,1017.36
2016-11-16T01:21:19.197Z,1017.33
2016-11-16T01:21:59.773Z,1017.32
2016-11-16T01:22:40.532Z,1017.3
2016-11-16T01:23:21.240Z,1017.31
2016-11-16T01:24:02.103Z,1017.3
2016-11-16T01:24:43.195Z,1017.32
2016-11-16T01:25:23.646Z,1017.34
2016-11-16T01:26:04.350Z,1017.33
2016-11-16T01:26:44.920Z,1017.33
2016-11-16T01:27:25.561Z,1017.34
2016-11-16T01:28:06.197Z,1017.32
2016-11-16T01:28:46.812Z,1017.34
2016-11-16T01:29:27.522Z,1017.33
2016-11-16T01:30:08.284Z,1017.33
2016-11-16T01:30:49.040Z,1017.31
2016-11-16T01:31:29.713Z,1017.33
2016-11-16T01:32:10.497Z,1017.31
2016-11-16T01:32:51.137Z,1017.32
2016-11-16T01:33:31.872Z,1017.32
2016-11-16T01:34:12.506Z,1017.32
2016-11-16T01:34:53.114Z,1017.3
2016-11-16T01:35:33.784Z,1017.29
2016-11-16T01:36:14.510Z,1017.26
2016-11-16T01:36:55.194Z,1017.28
2016-11-16T01:37:35.949Z,1017.24
2016-11-16T01:38:16.699Z,1017.26
2016-11-16T01:38:57.403Z,1017.23
2016-11-16T01:39:38.073Z,1017.23
2016-11-16T01:40:18.804Z,1017.24
2016-11-16T01:40:59.333Z,1017.23
2016-11-16T01:41:40.033Z,1017.23
2016-11-16T01:42:20.679Z,1017.2
2016-11-16T01:43:01.343Z,1017.2
2016-11-16T01:43:41.994Z,1017.18
2016-11-16T01:44:22.674Z,1017.18
2016-11-16T01:45:03.319Z,1017.12
2016-11-16T01:45:43.995Z,1017.16
2016-11-16T01:46:24.690Z,1017.14
2016-11-16T01:47:05.468Z,1017.16
2016-11-16T01:47:46.162Z,1017.12
2016-11-16T01:48:26.837Z,1017.16
2016-11-16T01:49:07.561Z,1017.13
2016-11-16T01:49:48.262Z,1017.12
2016-11-16T01:50:28.893Z,1017.13
2016-11-16T01:51:09.566Z,1017.14
2016-11-16T01:51:50.191Z,1017.15
2016-11-16T01:52:31.084Z,1017.15
2016-11-16T01:53:11.815Z,1017.13
2016-11-16T01:53:52.532Z,1017.12
2016-11-16T01:54:33.272Z,1017.14
2016-11-16T01:55:14.039Z,1017.17
2016-11-16T01:55:54.751Z,1017.11
2016-11-16T01:56:35.410Z,1017.14
2016-11-16T01:57:16.131Z,1017.1
2016-11-16T01:57:56.824Z,1017.11
2016-11-16T01:58:37.494Z,1017.11
2016-11-16T01:59:18.260Z,1017.11
2016-11-16T01:59:58.984Z,1017.12
2016-11-16T02:00:39.666Z,1017.1
2016-11-16T02:01:20.582Z,1017.11
2016-11-16T02:02:01.238Z,1017.12
2016-11-16T02:02:42.131Z,1017.09
2016-11-16T02:03:22.720Z,1017.1
2016-11-16T02:04:03.434Z,1017.11
2016-11-16T02:04:44.310Z,1017.05
2016-11-16T02:05:24.947Z,1017.05
2016-11-16T02:06:05.728Z,1016.99
2016-11-16T02:06:46.469Z,1017.04
2016-11-16T02:07:27.242Z,1017.04
2016-11-16T02:08:08.046Z,1017.01
2016-11-16T02:08:48.674Z,1016.99
2016-11-16T02:09:29.382Z,1016.99
2016-11-16T02:10:10.000Z,1016.95
2016-11-16T02:10:50.664Z,1016.98
2016-11-16T02:11:31.389Z,1016.99
2016-11-16T02:12:12.040Z,1016.99
2016-11-16T02:12:52.630Z,1016.97
2016-11-16T02:13:33.403Z,1017
2016-11-16T02:14:14.141Z,1016.95
2016-11-16T02:14:54.928Z,1016.97
2016-11-16T02:15:35.525Z,1016.99
2016-11-16T02:16:16.379Z,1016.99
2016-11-16T02:16:57.089Z,1016.97
2016-11-16T02:17:37.839Z,1016.93
2016-11-16T02:18:18.429Z,1016.98
2016-11-16T02:18:59.144Z,1016.92
2016-11-16T02:19:39.773Z,1016.93
2016-11-16T02:20:20.435Z,1016.9
2016-11-16T02:21:01.182Z,1016.92
2016-11-16T02:21:41.877Z,1016.92
2016-11-16T02:22:22.503Z,1016.89
2016-11-16T02:23:03.289Z,1016.84
2016-11-16T02:23:44.008Z,1016.83
2016-11-16T02:24:24.737Z,1016.88
2016-11-16T02:25:05.469Z,1016.83
2016-11-16T02:25:46.808Z,1016.82
2016-11-16T02:26:27.503Z,1016.81
2016-11-16T02:27:08.246Z,1016.82
2016-11-16T02:27:48.910Z,1016.79
2016-11-16T02:28:29.647Z,1016.78
2016-11-16T02:29:10.412Z,1016.8
2016-11-16T02:29:51.198Z,1016.74
2016-11-16T02:30:31.938Z,1016.74
2016-11-16T02:31:12.786Z,1016.79
2016-11-16T02:31:53.506Z,1016.72
2016-11-16T02:32:34.128Z,1016.74
2016-11-16T02:33:14.998Z,1016.72
2016-11-16T02:33:55.761Z,1016.69
2016-11-16T02:34:36.491Z,1016.65
2016-11-16T02:35:17.116Z,1016.66
2016-11-16T02:35:57.847Z,1016.7
2016-11-16T02:36:38.507Z,1016.67
2016-11-16T02:37:19.186Z,1016.66
2016-11-16T02:37:59.880Z,1016.62
2016-11-16T02:38:40.567Z,1016.62
2016-11-16T02:39:21.182Z,1016.6
2016-11-16T02:40:01.813Z,1016.55
2016-11-16T02:40:42.573Z,1016.54
2016-11-16T02:41:23.172Z,1016.56
2016-11-16T02:42:03.860Z,1016.53
2016-11-16T02:42:44.474Z,1016.49
2016-11-16T02:43:25.168Z,1016.52
2016-11-16T02:44:05.753Z,1016.47
2016-11-16T02:44:46.464Z,1016.48
2016-11-16T02:45:27.091Z,1016.46
2016-11-16T02:46:07.783Z,1016.43
2016-11-16T02:46:48.408Z,1016.39
2016-11-16T02:47:29.156Z,1016.35
2016-11-16T02:48:09.912Z,1016.38
2016-11-16T02:48:50.616Z,1016.35
2016-11-16T02:49:31.354Z,1016.33
2016-11-16T02:50:12.009Z,1016.33
2016-11-16T02:50:53.501Z,1016.28
2016-11-16T02:51:34.381Z,1016.32
2016-11-16T02:52:15.093Z,1016.28
2016-11-16T02:52:55.826Z,1016.27
2016-11-16T02:53:36.514Z,1016.28
2016-11-16T02:54:17.249Z,1016.29
2016-11-16T02:54:57.856Z,1016.24
2016-11-16T02:55:38.611Z,1016.26
2016-11-16T02:56:19.244Z,1016.18
2016-11-16T02:56:59.996Z,1016.2
2016-11-16T02:57:40.727Z,1016.16
2016-11-16T02:58:21.319Z,1016.14
2016-11-16T02:59:02.135Z,1016.15
2016-11-16T02:59:42.793Z,1016.1
2016-11-16T03:00:23.425Z,1016.09
2016-11-16T03:01:04.139Z,1016.07
2016-11-16T03:01:44.885Z,1016.05
2016-11-16T03:02:25.597Z,1016.03
2016-11-16T03:03:06.337Z,1016.02
2016-11-16T03:03:47.005Z,1015.98
2016-11-16T03:04:27.622Z,1016
2016-11-16T03:05:08.424Z,1015.96
2016-11-16T03:05:49.042Z,1015.98
2016-11-16T03:06:29.815Z,1015.95
2016-11-16T03:07:10.578Z,1015.94
2016-11-16T03:07:51.246Z,1015.9
2016-11-16T03:08:31.965Z,1015.91
2016-11-16T03:09:12.601Z,1015.9
2016-11-16T03:09:53.335Z,1015.87
2016-11-16T03:10:34.010Z,1015.85
2016-11-16T03:11:14.671Z,1015.86
2016-11-16T03:11:55.371Z,1015.84
2016-11-16T03:12:36.020Z,1015.81
2016-11-16T03:13:16.743Z,1015.81
2016-11-16T03:13:57.339Z,1015.8
2016-11-16T03:14:37.994Z,1015.78
2016-11-16T03:15:18.614Z,1015.76
2016-11-16T03:15:59.208Z,1015.77
2016-11-16T03:16:39.950Z,1015.76
2016-11-16T03:17:20.752Z,1015.74
2016-11-16T03:18:01.412Z,1015.74
2016-11-16T03:18:42.166Z,1015.71
2016-11-16T03:19:22.827Z,1015.72
2016-11-16T03:20:03.571Z,1015.7
2016-11-16T03:20:44.313Z,1015.7
2016-11-16T03:21:25.005Z,1015.66
2016-11-16T03:22:05.806Z,1015.68
2016-11-16T03:22:46.527Z,1015.67
2016-11-16T03:23:27.146Z,1015.65
2016-11-16T03:24:07.762Z,1015.64
2016-11-16T03:24:48.398Z,1015.65
2016-11-16T03:25:29.090Z,1015.68
2016-11-16T03:26:09.688Z,1015.67
2016-11-16T03:26:50.431Z,1015.65
2016-11-16T03:27:31.118Z,1015.54
2016-11-16T03:28:11.912Z,1015.57
2016-11-16T03:28:52.556Z,1015.59
2016-11-16T03:29:33.145Z,1015.54
2016-11-16T03:30:13.867Z,1015.54
2016-11-16T03:30:54.649Z,1015.51
2016-11-16T03:31:35.410Z,1015.49
2016-11-16T03:32:16.211Z,1015.51
2016-11-16T03:32:56.984Z,1015.5
2016-11-16T03:33:37.713Z,1015.51
2016-11-16T03:34:18.302Z,1015.45
2016-11-16T03:34:59.034Z,1015.44
2016-11-16T03:35:39.718Z,1015.49
2016-11-16T03:36:20.443Z,1015.43
2016-11-16T03:37:01.351Z,1015.45
2016-11-16T03:37:42.075Z,1015.4
2016-11-16T03:38:22.980Z,1015.39
2016-11-16T03:39:03.678Z,1015.38
2016-11-16T03:39:44.562Z,1015.38
2016-11-16T03:40:25.345Z,1015.37
2016-11-16T03:41:06.075Z,1015.37
2016-11-16T03:41:46.897Z,1015.34
2016-11-16T03:42:27.594Z,1015.34
2016-11-16T03:43:08.348Z,1015.33
2016-11-16T03:43:49.141Z,1015.32
2016-11-16T03:44:30.044Z,1015.33
2016-11-16T03:45:10.892Z,1015.33
2016-11-16T03:45:51.605Z,1015.33
2016-11-16T03:46:32.350Z,1015.33
2016-11-16T03:47:13.073Z,1015.32
2016-11-16T03:47:53.786Z,1015.29
2016-11-16T03:48:34.454Z,1015.29
2016-11-16T03:49:15.069Z,1015.32
2016-11-16T03:49:55.984Z,1015.25
2016-11-16T03:50:36.738Z,1015.27
2016-11-16T03:51:17.419Z,1015.27
2016-11-16T03:51:58.041Z,1015.25
2016-11-16T03:52:38.725Z,1015.22
2016-11-16T03:53:19.573Z,1015.22
2016-11-16T03:54:00.254Z,1015.19
2016-11-16T03:54:40.925Z,1015.17
2016-11-16T03:55:21.684Z,1015.21
2016-11-16T03:56:02.644Z,1015.17
2016-11-16T03:56:43.294Z,1015.16
2016-11-16T03:57:24.067Z,1015.2
2016-11-16T03:58:04.745Z,1015.2
2016-11-16T03:58:45.425Z,1015.15
2016-11-16T03:59:26.095Z,1015.18
2016-11-16T04:00:06.884Z,1015.18
2016-11-16T04:00:47.632Z,1015.2
2016-11-16T04:01:28.348Z,1015.16
2016-11-16T04:02:08.970Z,1015.15
2016-11-16T04:02:49.666Z,1015.18
2016-11-16T04:03:30.397Z,1015.16
2016-11-16T04:04:11.193Z,1015.14
2016-11-16T04:04:51.891Z,1015.11
2016-11-16T04:05:33.125Z,1015.11
2016-11-16T04:06:13.911Z,1015.07
2016-11-16T04:06:54.627Z,1015.08
2016-11-16T04:07:35.358Z,1015.01
2016-11-16T04:08:15.916Z,1014.95
2016-11-16T04:08:56.648Z,1014.98
2016-11-16T04:09:37.356Z,1014.95
2016-11-16T04:10:18.091Z,1014.99
2016-11-16T04:10:59.003Z,1015.02
2016-11-16T04:11:39.666Z,1015.01
2016-11-16T04:12:20.456Z,1014.99
2016-11-16T04:13:01.084Z,1014.98
2016-11-16T04:13:41.730Z,1014.98
2016-11-16T04:14:22.286Z,1014.98
2016-11-16T04:15:02.980Z,1014.9
2016-11-16T04:15:43.677Z,1014.85
2016-11-16T04:16:24.260Z,1014.9
2016-11-16T04:17:04.952Z,1014.83
2016-11-16T04:17:45.638Z,1014.83
2016-11-16T04:18:26.315Z,1014.86
2016-11-16T04:19:06.971Z,1014.77
2016-11-16T04:19:47.765Z,1014.73
2016-11-16T04:20:28.392Z,1014.74
2016-11-16T04:21:09.062Z,1014.75
2016-11-16T04:21:49.869Z,1014.77
2016-11-16T04:22:30.730Z,1014.74
2016-11-16T04:23:11.351Z,1014.74
2016-11-16T04:23:52.013Z,1014.73
2016-11-16T04:24:32.885Z,1014.74
2016-11-16T04:25:13.631Z,1014.72
2016-11-16T04:25:54.317Z,1014.71
2016-11-16T04:26:34.934Z,1014.69
2016-11-16T04:27:15.617Z,1014.7
2016-11-16T04:27:56.350Z,1014.66
2016-11-16T04:28:37.060Z,1014.64
2016-11-16T04:29:17.699Z,1014.65
2016-11-16T04:29:58.357Z,1014.59
2016-11-16T04:30:39.009Z,1014.58
2016-11-16T04:31:19.729Z,1014.59
2016-11-16T04:32:00.391Z,1014.59
2016-11-16T04:32:41.000Z,1014.6
2016-11-16T04:33:21.665Z,1014.61
2016-11-16T04:34:02.486Z,1014.54
2016-11-16T04:34:43.185Z,1014.55
2016-11-16T04:35:23.951Z,1014.53
2016-11-16T04:36:05.403Z,1014.53
2016-11-16T04:36:46.166Z,1014.52
2016-11-16T04:37:26.803Z,1014.5
2016-11-16T04:38:07.527Z,1014.52
2016-11-16T04:38:48.153Z,1014.51
2016-11-16T04:39:28.827Z,1014.48
2016-11-16T04:40:09.510Z,1014.52
2016-11-16T04:40:50.182Z,1014.46
2016-11-16T04:41:30.795Z,1014.47
2016-11-16T04:42:11.430Z,1014.47
2016-11-16T04:42:52.133Z,1014.44
2016-11-16T04:43:32.877Z,1014.4
2016-11-16T04:44:13.656Z,1014.4
2016-11-16T04:44:54.338Z,1014.37
2016-11-16T04:45:35.160Z,1014.35
2016-11-16T04:46:15.872Z,1014.36
2016-11-16T04:46:56.585Z,1014.31
2016-11-16T04:47:37.227Z,1014.32
2016-11-16T04:48:17.734Z,1014.28
2016-11-16T04:48:58.390Z,1014.23
2016-11-16T04:49:39.030Z,1014.24
2016-11-16T04:50:19.622Z,1014.2
2016-11-16T04:51:00.209Z,1014.22
2016-11-16T04:51:40.828Z,1014.16
2016-11-16T04:52:21.481Z,1014.17
2016-11-16T04:53:02.138Z,1014.16
2016-11-16T04:53:42.828Z,1014.19
2016-11-16T04:54:23.573Z,1014.21
2016-11-16T04:55:04.208Z,1014.12
2016-11-16T04:55:44.861Z,1014.14
2016-11-16T04:56:25.620Z,1014.16
2016-11-16T04:57:06.315Z,1014.12
2016-11-16T04:57:46.988Z,1014.1
2016-11-16T04:58:27.682Z,1014.09
2016-11-16T04:59:08.321Z,1014.13
2016-11-16T04:59:49.086Z,1014.12
2016-11-16T05:00:29.692Z,1014.1
2016-11-16T05:01:10.584Z,1014.1
2016-11-16T05:01:51.310Z,1014.06
2016-11-16T05:02:31.941Z,1014.04
2016-11-16T05:03:12.657Z,1014.05
2016-11-16T05:03:53.332Z,1014.04
2016-11-16T05:04:34.028Z,1014.04
2016-11-16T05:05:14.736Z,1014.03
2016-11-16T05:05:55.531Z,1014.01
2016-11-16T05:06:36.803Z,1014.01
2016-11-16T05:07:17.530Z,1014.01
2016-11-16T05:07:58.368Z,1013.97
2016-11-16T05:08:38.952Z,1013.94
2016-11-16T05:09:19.676Z,1013.94
2016-11-16T05:10:00.383Z,1013.89
2016-11-16T05:10:41.079Z,1013.91
2016-11-16T05:11:21.929Z,1013.88
2016-11-16T05:12:02.713Z,1013.85
2016-11-16T05:12:43.341Z,1013.89
2016-11-16T05:13:24.068Z,1013.85
2016-11-16T05:14:04.728Z,1013.89
2016-11-16T05:14:45.433Z,1013.86
2016-11-16T05:15:26.063Z,1013.83
2016-11-16T05:16:06.773Z,1013.8
2016-11-16T05:16:47.619Z,1013.73
2016-11-16T05:17:28.355Z,1013.72
2016-11-16T05:18:09.002Z,1013.7
2016-11-16T05:18:49.660Z,1013.68
2016-11-16T05:19:30.292Z,1013.7
2016-11-16T05:20:10.952Z,1013.65
2016-11-16T05:20:51.670Z,1013.65
2016-11-16T05:21:32.417Z,1013.63
2016-11-16T05:22:13.212Z,1013.66
2016-11-16T05:22:53.895Z,1013.68
2016-11-16T05:23:34.595Z,1013.67
2016-11-16T05:24:15.251Z,1013.61
2016-11-16T05:24:55.966Z,1013.59
2016-11-16T05:25:36.639Z,1013.58
2016-11-16T05:26:17.311Z,1013.58
2016-11-16T05:26:57.987Z,1013.56
2016-11-16T05:27:38.533Z,1013.54
2016-11-16T05:28:19.203Z,1013.56
2016-11-16T05:28:59.863Z,1013.53
2016-11-16T05:29:40.561Z,1013.52
2016-11-16T05:30:21.352Z,1013.51
2016-11-16T05:31:02.203Z,1013.51
2016-11-16T05:31:42.931Z,1013.56
2016-11-16T05:32:23.504Z,1013.47
2016-11-16T05:33:04.240Z,1013.48
2016-11-16T05:33:44.904Z,1013.48
2016-11-16T05:34:25.599Z,1013.48
2016-11-16T05:35:06.280Z,1013.49
2016-11-16T05:35:46.888Z,1013.48
2016-11-16T05:36:27.486Z,1013.47
2016-11-16T05:37:08.106Z,1013.56
2016-11-16T05:37:48.758Z,1013.48
2016-11-16T05:38:29.436Z,1013.45
2016-11-16T05:39:10.112Z,1013.5
2016-11-16T05:39:50.822Z,1013.48
2016-11-16T05:40:31.570Z,1013.51
2016-11-16T05:41:12.291Z,1013.45
2016-11-16T05:41:52.979Z,1013.47
2016-11-16T05:42:33.617Z,1013.49
2016-11-16T05:43:14.389Z,1013.42
2016-11-16T05:43:55.088Z,1013.41
2016-11-16T05:44:35.835Z,1013.45
2016-11-16T05:45:16.447Z,1013.4
2016-11-16T05:45:57.114Z,1013.43
2016-11-16T05:46:37.784Z,1013.42
2016-11-16T05:47:18.608Z,1013.36
2016-11-16T05:47:59.295Z,1013.4
2016-11-16T05:48:40.070Z,1013.4
2016-11-16T05:49:20.762Z,1013.35
2016-11-16T05:50:01.522Z,1013.36
2016-11-16T05:50:42.174Z,1013.32
2016-11-16T05:51:22.783Z,1013.31
2016-11-16T05:52:03.414Z,1013.35
2016-11-16T05:52:44.277Z,1013.31
2016-11-16T05:53:24.878Z,1013.35
2016-11-16T05:54:05.607Z,1013.27
2016-11-16T05:54:46.313Z,1013.32
2016-11-16T05:55:26.942Z,1013.28
2016-11-16T05:56:07.625Z,1013.26
2016-11-16T05:56:48.258Z,1013.28
2016-11-16T05:57:28.970Z,1013.3
2016-11-16T05:58:09.711Z,1013.26
2016-11-16T05:58:50.539Z,1013.29
2016-11-16T05:59:31.270Z,1013.23
2016-11-16T06:00:11.910Z,1013.28
2016-11-16T06:00:52.592Z,1013.25
2016-11-16T06:01:33.228Z,1013.3
2016-11-16T06:02:14.032Z,1013.23
2016-11-16T06:02:54.773Z,1013.23
2016-11-16T06:03:35.544Z,1013.28
2016-11-16T06:04:16.321Z,1013.27
2016-11-16T06:04:57.051Z,1013.26
2016-11-16T06:05:37.689Z,1013.25
2016-11-16T06:06:18.306Z,1013.29
2016-11-16T06:06:59.133Z,1013.26
2016-11-16T06:07:39.801Z,1013.24
2016-11-16T06:08:21.262Z,1013.28
2016-11-16T06:09:01.246Z,1013.29
2016-11-16T06:09:41.896Z,1013.25
2016-11-16T06:10:22.559Z,1013.26
2016-11-16T06:11:03.214Z,1013.21
2016-11-16T06:11:43.862Z,1013.23
2016-11-16T06:12:24.503Z,1013.26
2016-11-16T06:13:05.346Z,1013.24
2016-11-16T06:13:46.074Z,1013.22
2016-11-16T06:14:26.903Z,1013.22
2016-11-16T06:15:07.599Z,1013.25
2016-11-16T06:15:48.780Z,1013.25
2016-11-16T06:16:29.356Z,1013.18
2016-11-16T06:17:10.091Z,1013.25
2016-11-16T06:17:50.927Z,1013.23
2016-11-16T06:18:31.532Z,1013.22
2016-11-16T06:19:12.210Z,1013.22
2016-11-16T06:19:52.893Z,1013.2
2016-11-16T06:20:33.610Z,1013.27
2016-11-16T06:21:14.350Z,1013.19
2016-11-16T06:21:55.099Z,1013.23
2016-11-16T06:22:35.740Z,1013.22
2016-11-16T06:23:16.470Z,1013.21
2016-11-16T06:23:57.046Z,1013.19
2016-11-16T06:24:37.814Z,1013.19
2016-11-16T06:25:18.403Z,1013.22
2016-11-16T06:25:59.117Z,1013.14
2016-11-16T06:26:39.835Z,1013.18
2016-11-16T06:27:20.580Z,1013.17
2016-11-16T06:28:01.301Z,1013.09
2016-11-16T06:28:42.230Z,1013.03
2016-11-16T06:29:22.850Z,1013.12
2016-11-16T06:30:03.457Z,1013.15
2016-11-16T06:32:31.505Z,1013.01
2016-11-16T06:34:24.160Z,1013.02
2016-11-16T06:35:04.890Z,1013.03
2016-11-16T06:35:45.578Z,1013.04
2016-11-16T06:36:26.219Z,1013.03
2016-11-16T06:37:06.847Z,1013.03
2016-11-16T06:37:47.517Z,1012.96
2016-11-16T06:38:28.113Z,1013.01
2016-11-16T06:39:08.824Z,1013
2016-11-16T06:39:49.478Z,1012.98
2016-11-16T06:40:30.560Z,1012.96
2016-11-16T06:41:10.687Z,1012.96
2016-11-16T06:41:51.389Z,1012.99
2016-11-16T06:42:32.038Z,1012.96
2016-11-16T06:43:12.738Z,1012.95
2016-11-16T06:43:53.413Z,1012.94
2016-11-16T06:44:34.144Z,1012.92
2016-11-16T06:45:14.872Z,1012.96
2016-11-16T06:45:55.575Z,1012.99
2016-11-16T06:46:36.454Z,1013.02
2016-11-16T06:47:17.206Z,1012.94
2016-11-16T06:47:57.912Z,1013.01
2016-11-16T06:48:38.514Z,1013.12
2016-11-16T06:49:19.099Z,1012.97
2016-11-16T06:49:59.700Z,1012.97
2016-11-16T06:50:40.302Z,1012.97
2016-11-16T06:51:20.882Z,1013.01
2016-11-16T06:52:01.514Z,1012.92
2016-11-16T06:52:42.096Z,1012.93
2016-11-16T06:53:22.663Z,1012.88
2016-11-16T06:54:03.364Z,1012.93
2016-11-16T06:54:44.049Z,1012.88
2016-11-16T06:55:24.686Z,1012.89
2016-11-16T06:56:05.305Z,1012.86
2016-11-16T06:56:45.967Z,1012.88
2016-11-16T06:57:26.615Z,1012.92
2016-11-16T06:58:07.329Z,1012.87
2016-11-16T06:58:47.999Z,1012.82
2016-11-16T06:59:28.645Z,1012.84
2016-11-16T07:00:09.353Z,1012.88
2016-11-16T07:00:50.085Z,1012.81
2016-11-16T07:01:30.683Z,1012.88
2016-11-16T07:03:28.378Z,1012.92
2016-11-16T07:04:09.099Z,1012.81
2016-11-16T07:04:50.008Z,1012.84
2016-11-16T07:05:30.736Z,1012.8
2016-11-16T07:06:11.445Z,1012.85
2016-11-16T07:06:52.061Z,1012.78
2016-11-16T07:07:32.673Z,1012.78
2016-11-16T07:08:13.269Z,1012.81
2016-11-16T07:08:53.956Z,1012.81
2016-11-16T07:09:34.580Z,1012.85
2016-11-16T07:10:15.178Z,1012.79
2016-11-16T07:10:55.809Z,1012.73
2016-11-16T07:11:36.645Z,1012.79
2016-11-16T07:12:17.225Z,1012.74
2016-11-16T07:12:57.849Z,1012.88
2016-11-16T07:13:38.460Z,1012.76
2016-11-16T07:14:19.124Z,1012.78
2016-11-16T07:14:59.722Z,1012.71
2016-11-16T07:15:40.376Z,1012.76
2016-11-16T07:16:21.194Z,1012.8
2016-11-16T07:17:01.841Z,1012.73
2016-11-16T07:17:42.469Z,1012.77
2016-11-16T07:18:23.070Z,1012.77
2016-11-16T07:19:03.723Z,1012.8
2016-11-16T07:19:44.383Z,1012.83
2016-11-16T07:20:25.003Z,1012.79
2016-11-16T07:21:05.645Z,1012.82
2016-11-16T07:21:46.313Z,1012.75
2016-11-16T07:22:27.038Z,1012.69
2016-11-16T07:23:07.688Z,1012.77
2016-11-16T07:23:48.377Z,1012.74
2016-11-16T07:24:29.161Z,1012.67
2016-11-16T07:25:09.833Z,1012.76
2016-11-16T07:25:50.615Z,1012.75
2016-11-16T07:26:31.409Z,1012.74
2016-11-16T07:27:12.133Z,1012.73
2016-11-16T07:27:52.741Z,1012.7
2016-11-16T07:28:33.417Z,1012.76
2016-11-16T07:29:14.135Z,1012.78
2016-11-16T07:29:54.843Z,1012.71
2016-11-16T07:30:35.465Z,1012.73
2016-11-16T07:31:16.163Z,1012.74
2016-11-16T07:31:56.790Z,1012.66
2016-11-16T07:32:37.413Z,1012.68
2016-11-16T07:33:18.177Z,1012.66
2016-11-16T07:33:58.909Z,1012.65
2016-11-16T07:34:39.537Z,1012.64
2016-11-16T07:35:20.251Z,1012.66
2016-11-16T07:36:00.904Z,1012.7
2016-11-16T07:36:41.565Z,1012.72
2016-11-16T07:37:22.309Z,1012.71
2016-11-16T07:38:03.052Z,1012.68
2016-11-16T07:38:43.700Z,1012.64
2016-11-16T07:39:24.513Z,1012.64
2016-11-16T07:40:05.128Z,1012.62
2016-11-16T07:40:45.780Z,1012.6
2016-11-16T07:41:26.497Z,1012.55
2016-11-16T07:42:07.180Z,1012.61
2016-11-16T07:42:47.966Z,1012.53
2016-11-16T07:43:28.633Z,1012.57
2016-11-16T07:44:09.281Z,1012.55
2016-11-16T07:44:49.972Z,1012.58
2016-11-16T07:45:30.605Z,1012.63
2016-11-16T07:46:11.343Z,1012.57
2016-11-16T07:46:52.100Z,1012.58
2016-11-16T07:47:32.756Z,1012.54
2016-11-16T07:48:13.422Z,1012.53
2016-11-16T07:48:54.088Z,1012.6
2016-11-16T07:49:34.766Z,1012.53
2016-11-16T07:50:15.453Z,1012.55
2016-11-16T07:50:56.130Z,1012.51
2016-11-16T07:51:36.769Z,1012.51
2016-11-16T07:52:17.389Z,1012.5
2016-11-16T07:52:58.072Z,1012.64
2016-11-16T07:53:38.752Z,1012.5
2016-11-16T07:54:19.376Z,1012.52
2016-11-16T07:54:59.943Z,1012.56
2016-11-16T07:55:40.585Z,1012.49
2016-11-16T07:56:21.385Z,1012.5
2016-11-16T07:57:02.839Z,1012.46
2016-11-16T07:57:42.645Z,1012.53
2016-11-16T07:58:23.580Z,1012.51
2016-11-16T07:59:04.305Z,1012.44
2016-11-16T07:59:44.988Z,1012.49
2016-11-16T08:00:25.615Z,1012.45
2016-11-16T08:01:06.278Z,1012.51
2016-11-16T08:01:46.955Z,1012.49
2016-11-16T08:02:27.519Z,1012.45
2016-11-16T08:03:08.138Z,1012.45
2016-11-16T08:03:48.885Z,1012.49
2016-11-16T08:04:29.611Z,1012.46
2016-11-16T08:05:10.313Z,1012.48
2016-11-16T08:05:51.044Z,1012.47
2016-11-16T08:06:31.630Z,1012.47
2016-11-16T08:07:12.322Z,1012.46
2016-11-16T08:07:52.956Z,1012.37
2016-11-16T08:08:33.657Z,1012.57
2016-11-16T08:09:14.374Z,1012.45
2016-11-16T08:09:54.987Z,1012.52
2016-11-16T08:10:36.264Z,1012.39
2016-11-16T08:11:16.909Z,1012.45
2016-11-16T08:11:57.626Z,1012.51
2016-11-16T08:12:38.356Z,1012.44
2016-11-16T08:13:19.070Z,1012.47
2016-11-16T08:13:59.654Z,1012.42
2016-11-16T08:14:40.333Z,1012.46
2016-11-16T08:15:20.972Z,1012.43
2016-11-16T08:16:01.641Z,1012.45
2016-11-16T08:16:42.424Z,1012.48
2016-11-16T08:17:23.104Z,1012.5
2016-11-16T08:18:03.691Z,1012.46
2016-11-16T08:18:44.364Z,1012.47